sensor_id;sensor_type;location;lat;lon;timestamp;P1;durP1;ratioP1;P2;durP2;ratioP2
62258;SDS011;48241;48.824;10.102;2023-02-18T00:02:11;1.65;;;1.10;;
62258;SDS011;48241;48.824;10.102;2023-02-18T00:04:36;3.60;;;1.00;;
62258;SDS011;48241;48.824;10.102;2023-02-18T00:07:02;1.42;;;1.10;;
62258;SDS011;48241;48.824;10.102;2023-02-18T00:09:27;1.23;;;1.10;;
62258;SDS011;48241;48.824;10.102;2023-02-18T00:11:53;2.08;;;1.40;;
62258;SDS011;48241;48.824;10.102;2023-02-18T00:14:18;1.20;;;1.10;;
62258;SDS011;48241;48.824;10.102;2023-02-18T00:16:44;1.65;;;1.23;;
62258;SDS011;48241;48.824;10.102;2023-02-18T00:19:11;1.02;;;1.00;;
62258;SDS011;48241;48.824;10.102;2023-02-18T00:21:39;1.30;;;1.08;;
62258;SDS011;48241;48.824;10.102;2023-02-18T00:24:05;1.17;;;1.08;;
62258;SDS011;48241;48.824;10.102;2023-02-18T00:26:31;1.40;;;1.30;;
62258;SDS011;48241;48.824;10.102;2023-02-18T00:28:57;1.00;;;0.90;;
62258;SDS011;48241;48.824;10.102;2023-02-18T00:31:26;1.40;;;0.98;;
62258;SDS011;48241;48.824;10.102;2023-02-18T00:33:53;1.05;;;0.95;;
62258;SDS011;48241;48.824;10.102;2023-02-18T00:36:21;1.50;;;1.20;;
62258;SDS011;48241;48.824;10.102;2023-02-18T00:38:48;1.52;;;1.23;;
62258;SDS011;48241;48.824;10.102;2023-02-18T00:41:15;1.20;;;1.10;;
62258;SDS011;48241;48.824;10.102;2023-02-18T00:43:42;1.17;;;1.08;;
62258;SDS011;48241;48.824;10.102;2023-02-18T00:46:07;1.33;;;1.00;;
62258;SDS011;48241;48.824;10.102;2023-02-18T00:48:33;1.50;;;1.00;;
62258;SDS011;48241;48.824;10.102;2023-02-18T00:51:00;2.28;;;1.25;;
62258;SDS011;48241;48.824;10.102;2023-02-18T00:53:26;1.20;;;1.10;;
62258;SDS011;48241;48.824;10.102;2023-02-18T00:55:53;1.40;;;1.10;;
62258;SDS011;48241;48.824;10.102;2023-02-18T00:58:18;1.08;;;1.00;;
62258;SDS011;48241;48.824;10.102;2023-02-18T01:00:44;1.10;;;1.00;;
62258;SDS011;48241;48.824;10.102;2023-02-18T01:03:10;1.30;;;1.00;;
62258;SDS011;48241;48.824;10.102;2023-02-18T01:05:36;1.15;;;1.05;;
62258;SDS011;48241;48.824;10.102;2023-02-18T01:08:02;2.08;;;1.00;;
62258;SDS011;48241;48.824;10.102;2023-02-18T01:10:29;1.10;;;1.00;;
62258;SDS011;48241;48.824;10.102;2023-02-18T01:12:55;1.35;;;1.17;;
62258;SDS011;48241;48.824;10.102;2023-02-18T01:15:21;3.03;;;1.20;;
62258;SDS011;48241;48.824;10.102;2023-02-18T01:17:47;1.50;;;1.10;;
62258;SDS011;48241;48.824;10.102;2023-02-18T01:20:13;1.58;;;1.20;;
62258;SDS011;48241;48.824;10.102;2023-02-18T01:22:39;1.88;;;0.93;;
62258;SDS011;48241;48.824;10.102;2023-02-18T01:25:05;1.58;;;1.10;;
62258;SDS011;48241;48.824;10.102;2023-02-18T01:27:31;1.10;;;1.00;;
62258;SDS011;48241;48.824;10.102;2023-02-18T01:29:57;1.63;;;1.02;;
62258;SDS011;48241;48.824;10.102;2023-02-18T01:32:23;1.00;;;0.90;;
62258;SDS011;48241;48.824;10.102;2023-02-18T01:34:48;1.50;;;1.08;;
62258;SDS011;48241;48.824;10.102;2023-02-18T01:37:14;1.10;;;1.00;;
62258;SDS011;48241;48.824;10.102;2023-02-18T01:39:39;1.48;;;1.10;;
62258;SDS011;48241;48.824;10.102;2023-02-18T01:42:05;1.27;;;1.17;;
62258;SDS011;48241;48.824;10.102;2023-02-18T01:44:34;1.20;;;1.10;;
62258;SDS011;48241;48.824;10.102;2023-02-18T01:46:59;1.08;;;0.95;;
62258;SDS011;48241;48.824;10.102;2023-02-18T01:49:26;1.30;;;1.20;;
62258;SDS011;48241;48.824;10.102;2023-02-18T01:52:02;2.78;;;1.30;;
62258;SDS011;48241;48.824;10.102;2023-02-18T01:54:44;1.58;;;1.35;;
62258;SDS011;48241;48.824;10.102;2023-02-18T01:57:20;1.05;;;0.93;;
62258;SDS011;48241;48.824;10.102;2023-02-18T01:59:58;2.05;;;1.08;;
62258;SDS011;48241;48.824;10.102;2023-02-18T02:02:28;1.50;;;1.20;;
62258;SDS011;48241;48.824;10.102;2023-02-18T02:04:56;1.20;;;1.10;;
62258;SDS011;48241;48.824;10.102;2023-02-18T02:07:22;1.40;;;1.30;;
62258;SDS011;48241;48.824;10.102;2023-02-18T02:09:50;2.45;;;1.20;;
62258;SDS011;48241;48.824;10.102;2023-02-18T02:32:04;1.88;;;1.58;;
62258;SDS011;48241;48.824;10.102;2023-02-18T02:34:59;1.70;;;1.40;;
62258;SDS011;48241;48.824;10.102;2023-02-18T02:48:28;2.45;;;1.70;;
62258;SDS011;48241;48.824;10.102;2023-02-18T02:51:14;2.22;;;1.45;;
62258;SDS011;48241;48.824;10.102;2023-02-18T02:53:44;2.17;;;1.50;;
62258;SDS011;48241;48.824;10.102;2023-02-18T02:56:17;2.40;;;1.60;;
62258;SDS011;48241;48.824;10.102;2023-02-18T02:58:46;3.55;;;1.83;;
62258;SDS011;48241;48.824;10.102;2023-02-18T03:04:39;1.38;;;1.15;;
62258;SDS011;48241;48.824;10.102;2023-02-18T03:07:24;3.53;;;1.98;;
62258;SDS011;48241;48.824;10.102;2023-02-18T03:17:54;1.73;;;1.52;;
62258;SDS011;48241;48.824;10.102;2023-02-18T03:20:46;1.98;;;1.77;;
62258;SDS011;48241;48.824;10.102;2023-02-18T03:23:26;1.88;;;1.58;;
62258;SDS011;48241;48.824;10.102;2023-02-18T03:25:56;2.90;;;2.10;;
62258;SDS011;48241;48.824;10.102;2023-02-18T03:28:23;1.80;;;1.67;;
62258;SDS011;48241;48.824;10.102;2023-02-18T03:30:54;1.55;;;1.45;;
62258;SDS011;48241;48.824;10.102;2023-02-18T03:33:25;2.25;;;1.60;;
62258;SDS011;48241;48.824;10.102;2023-02-18T03:35:54;1.40;;;1.30;;
62258;SDS011;48241;48.824;10.102;2023-02-18T03:38:32;1.60;;;1.38;;
62258;SDS011;48241;48.824;10.102;2023-02-18T03:41:03;2.53;;;1.50;;
62258;SDS011;48241;48.824;10.102;2023-02-18T03:43:29;2.95;;;1.42;;
62258;SDS011;48241;48.824;10.102;2023-02-18T03:45:55;1.50;;;1.30;;
62258;SDS011;48241;48.824;10.102;2023-02-18T03:48:21;1.50;;;1.40;;
62258;SDS011;48241;48.824;10.102;2023-02-18T03:50:47;2.10;;;1.52;;
62258;SDS011;48241;48.824;10.102;2023-02-18T03:53:12;1.33;;;1.23;;
62258;SDS011;48241;48.824;10.102;2023-02-18T03:55:38;2.00;;;1.40;;
62258;SDS011;48241;48.824;10.102;2023-02-18T03:58:04;2.90;;;1.52;;
62258;SDS011;48241;48.824;10.102;2023-02-18T04:00:30;1.80;;;1.20;;
62258;SDS011;48241;48.824;10.102;2023-02-18T04:02:55;1.73;;;1.42;;
62258;SDS011;48241;48.824;10.102;2023-02-18T04:05:21;1.13;;;1.00;;
62258;SDS011;48241;48.824;10.102;2023-02-18T04:07:46;2.38;;;1.42;;
62258;SDS011;48241;48.824;10.102;2023-02-18T04:10:12;1.30;;;1.20;;
62258;SDS011;48241;48.824;10.102;2023-02-18T04:12:37;1.63;;;1.15;;
62258;SDS011;48241;48.824;10.102;2023-02-18T04:15:03;1.23;;;1.10;;
62258;SDS011;48241;48.824;10.102;2023-02-18T04:17:29;2.55;;;1.10;;
62258;SDS011;48241;48.824;10.102;2023-02-18T04:19:56;1.95;;;1.10;;
62258;SDS011;48241;48.824;10.102;2023-02-18T04:22:21;1.30;;;1.05;;
62258;SDS011;48241;48.824;10.102;2023-02-18T04:24:47;2.03;;;1.35;;
62258;SDS011;48241;48.824;10.102;2023-02-18T04:27:12;1.67;;;1.10;;
62258;SDS011;48241;48.824;10.102;2023-02-18T04:29:38;1.77;;;1.30;;
62258;SDS011;48241;48.824;10.102;2023-02-18T04:32:03;1.20;;;1.10;;
62258;SDS011;48241;48.824;10.102;2023-02-18T04:34:29;1.75;;;1.50;;
62258;SDS011;48241;48.824;10.102;2023-02-18T04:36:55;2.78;;;1.60;;
62258;SDS011;48241;48.824;10.102;2023-02-18T04:39:21;1.42;;;1.33;;
62258;SDS011;48241;48.824;10.102;2023-02-18T04:41:47;1.60;;;1.50;;
62258;SDS011;48241;48.824;10.102;2023-02-18T04:44:12;1.70;;;1.50;;
62258;SDS011;48241;48.824;10.102;2023-02-18T04:46:38;2.33;;;1.58;;
62258;SDS011;48241;48.824;10.102;2023-02-18T04:49:03;2.35;;;1.70;;
62258;SDS011;48241;48.824;10.102;2023-02-18T04:51:29;2.13;;;1.92;;
62258;SDS011;48241;48.824;10.102;2023-02-18T04:53:54;1.80;;;1.70;;
62258;SDS011;48241;48.824;10.102;2023-02-18T04:56:20;1.50;;;1.40;;
62258;SDS011;48241;48.824;10.102;2023-02-18T04:58:45;2.22;;;1.70;;
62258;SDS011;48241;48.824;10.102;2023-02-18T05:01:11;1.42;;;1.33;;
62258;SDS011;48241;48.824;10.102;2023-02-18T05:03:37;2.08;;;1.50;;
62258;SDS011;48241;48.824;10.102;2023-02-18T05:06:02;1.65;;;1.38;;
62258;SDS011;48241;48.824;10.102;2023-02-18T05:08:28;2.05;;;1.60;;
62258;SDS011;48241;48.824;10.102;2023-02-18T05:10:54;2.55;;;1.63;;
62258;SDS011;48241;48.824;10.102;2023-02-18T05:13:19;1.88;;;1.65;;
62258;SDS011;48241;48.824;10.102;2023-02-18T05:15:46;2.42;;;1.70;;
62258;SDS011;48241;48.824;10.102;2023-02-18T05:18:12;2.30;;;2.08;;
62258;SDS011;48241;48.824;10.102;2023-02-18T05:20:38;1.48;;;1.35;;
62258;SDS011;48241;48.824;10.102;2023-02-18T05:23:03;1.65;;;1.50;;
62258;SDS011;48241;48.824;10.102;2023-02-18T05:25:29;1.70;;;1.60;;
62258;SDS011;48241;48.824;10.102;2023-02-18T05:27:54;2.58;;;1.50;;
62258;SDS011;48241;48.824;10.102;2023-02-18T05:30:20;2.13;;;1.70;;
62258;SDS011;48241;48.824;10.102;2023-02-18T05:32:45;1.80;;;1.60;;
62258;SDS011;48241;48.824;10.102;2023-02-18T05:35:11;2.08;;;1.63;;
62258;SDS011;48241;48.824;10.102;2023-02-18T05:37:37;2.58;;;1.70;;
62258;SDS011;48241;48.824;10.102;2023-02-18T05:40:03;2.05;;;1.42;;
62258;SDS011;48241;48.824;10.102;2023-02-18T05:42:30;2.60;;;2.00;;
62258;SDS011;48241;48.824;10.102;2023-02-18T05:44:56;2.88;;;2.08;;
62258;SDS011;48241;48.824;10.102;2023-02-18T05:47:23;2.83;;;1.65;;
62258;SDS011;48241;48.824;10.102;2023-02-18T05:49:48;2.03;;;1.77;;
62258;SDS011;48241;48.824;10.102;2023-02-18T05:52:14;2.55;;;1.80;;
62258;SDS011;48241;48.824;10.102;2023-02-18T05:54:40;2.08;;;1.58;;
62258;SDS011;48241;48.824;10.102;2023-02-18T05:57:06;2.90;;;2.20;;
62258;SDS011;48241;48.824;10.102;2023-02-18T05:59:50;3.47;;;2.10;;
62258;SDS011;48241;48.824;10.102;2023-02-18T06:02:18;2.20;;;2.00;;
62258;SDS011;48241;48.824;10.102;2023-02-18T06:04:47;1.70;;;1.60;;
62258;SDS011;48241;48.824;10.102;2023-02-18T06:07:18;2.90;;;1.85;;
62258;SDS011;48241;48.824;10.102;2023-02-18T06:09:44;1.92;;;1.70;;
62258;SDS011;48241;48.824;10.102;2023-02-18T06:12:10;1.50;;;1.17;;
62258;SDS011;48241;48.824;10.102;2023-02-18T06:14:36;2.25;;;2.05;;
62258;SDS011;48241;48.824;10.102;2023-02-18T06:17:02;2.47;;;2.00;;
62258;SDS011;48241;48.824;10.102;2023-02-18T06:19:33;2.95;;;1.60;;
62258;SDS011;48241;48.824;10.102;2023-02-18T06:21:59;1.77;;;1.60;;
62258;SDS011;48241;48.824;10.102;2023-02-18T06:24:25;2.83;;;1.77;;
62258;SDS011;48241;48.824;10.102;2023-02-18T06:26:50;2.20;;;1.77;;
62258;SDS011;48241;48.824;10.102;2023-02-18T06:29:16;2.13;;;1.77;;
62258;SDS011;48241;48.824;10.102;2023-02-18T06:31:41;2.70;;;1.70;;
62258;SDS011;48241;48.824;10.102;2023-02-18T06:34:10;1.60;;;1.30;;
62258;SDS011;48241;48.824;10.102;2023-02-18T06:36:35;1.80;;;1.50;;
62258;SDS011;48241;48.824;10.102;2023-02-18T06:39:02;2.88;;;1.58;;
62258;SDS011;48241;48.824;10.102;2023-02-18T06:41:31;1.38;;;1.27;;
62258;SDS011;48241;48.824;10.102;2023-02-18T06:43:57;1.83;;;1.40;;
62258;SDS011;48241;48.824;10.102;2023-02-18T06:46:23;1.73;;;1.30;;
62258;SDS011;48241;48.824;10.102;2023-02-18T06:48:54;1.60;;;1.42;;
62258;SDS011;48241;48.824;10.102;2023-02-18T06:58:06;1.60;;;1.50;;
62258;SDS011;48241;48.824;10.102;2023-02-18T07:00:33;1.75;;;1.60;;
62258;SDS011;48241;48.824;10.102;2023-02-18T07:02:58;2.03;;;1.55;;
62258;SDS011;48241;48.824;10.102;2023-02-18T07:05:24;2.10;;;1.67;;
62258;SDS011;48241;48.824;10.102;2023-02-18T07:07:49;1.65;;;1.52;;
62258;SDS011;48241;48.824;10.102;2023-02-18T07:10:15;2.25;;;1.92;;
62258;SDS011;48241;48.824;10.102;2023-02-18T07:12:40;1.52;;;1.20;;
62258;SDS011;48241;48.824;10.102;2023-02-18T07:15:06;1.55;;;1.45;;
62258;SDS011;48241;48.824;10.102;2023-02-18T07:17:32;1.00;;;0.90;;
62258;SDS011;48241;48.824;10.102;2023-02-18T07:19:57;1.73;;;1.52;;
62258;SDS011;48241;48.824;10.102;2023-02-18T07:22:24;1.80;;;1.40;;
62258;SDS011;48241;48.824;10.102;2023-02-18T07:24:50;2.75;;;1.23;;
62258;SDS011;48241;48.824;10.102;2023-02-18T07:27:19;1.90;;;1.50;;
62258;SDS011;48241;48.824;10.102;2023-02-18T07:29:45;2.58;;;1.50;;
62258;SDS011;48241;48.824;10.102;2023-02-18T07:32:12;1.75;;;1.48;;
62258;SDS011;48241;48.824;10.102;2023-02-18T07:34:38;1.65;;;1.55;;
62258;SDS011;48241;48.824;10.102;2023-02-18T07:37:04;2.47;;;1.50;;
62258;SDS011;48241;48.824;10.102;2023-02-18T07:39:33;1.90;;;1.50;;
62258;SDS011;48241;48.824;10.102;2023-02-18T07:42:09;2.05;;;1.80;;
62258;SDS011;48241;48.824;10.102;2023-02-18T07:44:36;1.45;;;1.10;;
62258;SDS011;48241;48.824;10.102;2023-02-18T07:47:03;1.90;;;1.50;;
62258;SDS011;48241;48.824;10.102;2023-02-18T07:49:29;2.10;;;1.60;;
62258;SDS011;48241;48.824;10.102;2023-02-18T07:51:55;1.70;;;1.60;;
62258;SDS011;48241;48.824;10.102;2023-02-18T07:54:21;1.50;;;1.40;;
62258;SDS011;48241;48.824;10.102;2023-02-18T07:56:47;1.67;;;1.48;;
62258;SDS011;48241;48.824;10.102;2023-02-18T07:59:12;1.50;;;1.38;;
62258;SDS011;48241;48.824;10.102;2023-02-18T08:01:39;2.22;;;1.50;;
62258;SDS011;48241;48.824;10.102;2023-02-18T08:04:05;3.00;;;1.90;;
62258;SDS011;48241;48.824;10.102;2023-02-18T08:06:39;2.30;;;1.70;;
62258;SDS011;48241;48.824;10.102;2023-02-18T08:09:06;2.55;;;1.75;;
62258;SDS011;48241;48.824;10.102;2023-02-18T08:11:32;4.18;;;2.00;;
62258;SDS011;48241;48.824;10.102;2023-02-18T08:13:58;1.85;;;1.70;;
62258;SDS011;48241;48.824;10.102;2023-02-18T08:16:24;2.17;;;1.60;;
62258;SDS011;48241;48.824;10.102;2023-02-18T08:18:50;2.22;;;1.80;;
62258;SDS011;48241;48.824;10.102;2023-02-18T08:21:17;2.35;;;1.95;;
62258;SDS011;48241;48.824;10.102;2023-02-18T08:23:43;2.17;;;1.92;;
62258;SDS011;48241;48.824;10.102;2023-02-18T08:26:09;1.75;;;1.48;;
62258;SDS011;48241;48.824;10.102;2023-02-18T08:28:35;2.92;;;1.73;;
62258;SDS011;48241;48.824;10.102;2023-02-18T08:31:01;2.20;;;1.70;;
62258;SDS011;48241;48.824;10.102;2023-02-18T08:33:26;2.22;;;1.63;;
62258;SDS011;48241;48.824;10.102;2023-02-18T08:35:53;2.67;;;1.90;;
62258;SDS011;48241;48.824;10.102;2023-02-18T08:38:19;2.25;;;1.95;;
62258;SDS011;48241;48.824;10.102;2023-02-18T08:40:46;2.95;;;2.20;;
62258;SDS011;48241;48.824;10.102;2023-02-18T08:43:12;1.90;;;1.48;;
62258;SDS011;48241;48.824;10.102;2023-02-18T08:45:38;2.00;;;1.65;;
62258;SDS011;48241;48.824;10.102;2023-02-18T08:48:05;1.67;;;1.58;;
62258;SDS011;48241;48.824;10.102;2023-02-18T08:50:32;2.13;;;1.92;;
62258;SDS011;48241;48.824;10.102;2023-02-18T08:52:57;2.33;;;2.00;;
62258;SDS011;48241;48.824;10.102;2023-02-18T08:55:27;2.28;;;2.05;;
62258;SDS011;48241;48.824;10.102;2023-02-18T08:57:54;2.28;;;1.92;;
62258;SDS011;48241;48.824;10.102;2023-02-18T09:00:20;2.00;;;1.80;;
62258;SDS011;48241;48.824;10.102;2023-02-18T09:02:45;2.47;;;1.90;;
62258;SDS011;48241;48.824;10.102;2023-02-18T09:05:12;2.15;;;1.90;;
62258;SDS011;48241;48.824;10.102;2023-02-18T09:07:38;1.88;;;1.60;;
62258;SDS011;48241;48.824;10.102;2023-02-18T09:10:04;1.60;;;1.40;;
62258;SDS011;48241;48.824;10.102;2023-02-18T09:12:30;3.22;;;1.50;;
62258;SDS011;48241;48.824;10.102;2023-02-18T09:14:56;2.00;;;1.77;;
62258;SDS011;48241;48.824;10.102;2023-02-18T09:17:21;1.80;;;1.60;;
62258;SDS011;48241;48.824;10.102;2023-02-18T09:19:47;2.35;;;1.63;;
62258;SDS011;48241;48.824;10.102;2023-02-18T09:22:13;1.75;;;1.63;;
62258;SDS011;48241;48.824;10.102;2023-02-18T09:24:39;1.50;;;1.35;;
62258;SDS011;48241;48.824;10.102;2023-02-18T09:27:06;2.03;;;1.75;;
62258;SDS011;48241;48.824;10.102;2023-02-18T09:29:33;2.00;;;1.52;;
62258;SDS011;48241;48.824;10.102;2023-02-18T09:32:02;1.80;;;1.70;;
62258;SDS011;48241;48.824;10.102;2023-02-18T09:34:28;2.38;;;1.70;;
62258;SDS011;48241;48.824;10.102;2023-02-18T09:36:54;2.58;;;1.30;;
62258;SDS011;48241;48.824;10.102;2023-02-18T09:39:19;1.48;;;1.30;;
62258;SDS011;48241;48.824;10.102;2023-02-18T09:41:46;1.40;;;1.30;;
62258;SDS011;48241;48.824;10.102;2023-02-18T09:44:24;1.83;;;1.40;;
62258;SDS011;48241;48.824;10.102;2023-02-18T09:47:08;1.60;;;1.08;;
62258;SDS011;48241;48.824;10.102;2023-02-18T09:49:49;1.30;;;1.20;;
62258;SDS011;48241;48.824;10.102;2023-02-18T09:52:21;1.05;;;0.95;;
62258;SDS011;48241;48.824;10.102;2023-02-18T09:54:52;1.30;;;1.20;;
62258;SDS011;48241;48.824;10.102;2023-02-18T09:57:40;1.60;;;1.10;;
62258;SDS011;48241;48.824;10.102;2023-02-18T10:00:12;1.58;;;1.13;;
62258;SDS011;48241;48.824;10.102;2023-02-18T10:02:53;1.88;;;1.27;;
62258;SDS011;48241;48.824;10.102;2023-02-18T10:05:25;1.63;;;1.30;;
62258;SDS011;48241;48.824;10.102;2023-02-18T10:07:55;1.58;;;0.95;;
62258;SDS011;48241;48.824;10.102;2023-02-18T10:13:01;1.85;;;1.27;;
62258;SDS011;48241;48.824;10.102;2023-02-18T10:15:28;1.20;;;1.10;;
62258;SDS011;48241;48.824;10.102;2023-02-18T10:17:56;0.82;;;0.73;;
62258;SDS011;48241;48.824;10.102;2023-02-18T10:20:23;0.93;;;0.80;;
62258;SDS011;48241;48.824;10.102;2023-02-18T10:22:53;1.27;;;1.08;;
62258;SDS011;48241;48.824;10.102;2023-02-18T10:25:21;1.20;;;1.10;;
62258;SDS011;48241;48.824;10.102;2023-02-18T10:27:49;1.27;;;1.00;;
62258;SDS011;48241;48.824;10.102;2023-02-18T10:30:23;1.42;;;0.98;;
62258;SDS011;48241;48.824;10.102;2023-02-18T10:32:55;1.50;;;1.00;;
62258;SDS011;48241;48.824;10.102;2023-02-18T10:35:41;1.15;;;1.05;;
62258;SDS011;48241;48.824;10.102;2023-02-18T10:41:20;1.40;;;1.10;;
62258;SDS011;48241;48.824;10.102;2023-02-18T10:44:01;0.85;;;0.85;;
62258;SDS011;48241;48.824;10.102;2023-02-18T10:52:22;1.17;;;1.08;;
62258;SDS011;48241;48.824;10.102;2023-02-18T10:54:57;1.30;;;1.00;;
62258;SDS011;48241;48.824;10.102;2023-02-18T10:57:31;1.00;;;0.90;;
62258;SDS011;48241;48.824;10.102;2023-02-18T10:59:59;1.92;;;0.90;;
62258;SDS011;48241;48.824;10.102;2023-02-18T11:02:42;1.25;;;1.10;;
62258;SDS011;48241;48.824;10.102;2023-02-18T11:05:20;1.10;;;1.00;;
62258;SDS011;48241;48.824;10.102;2023-02-18T11:07:49;1.25;;;1.00;;
62258;SDS011;48241;48.824;10.102;2023-02-18T11:10:17;1.58;;;0.75;;
62258;SDS011;48241;48.824;10.102;2023-02-18T11:12:49;0.85;;;0.73;;
62258;SDS011;48241;48.824;10.102;2023-02-18T11:15:21;1.85;;;0.88;;
62258;SDS011;48241;48.824;10.102;2023-02-18T11:17:49;1.15;;;0.90;;
62258;SDS011;48241;48.824;10.102;2023-02-18T11:22:50;2.25;;;1.20;;
62258;SDS011;48241;48.824;10.102;2023-02-18T11:27:50;1.58;;;1.10;;
62258;SDS011;48241;48.824;10.102;2023-02-18T11:30:29;0.82;;;0.82;;
62258;SDS011;48241;48.824;10.102;2023-02-18T11:35:52;1.35;;;1.10;;
62258;SDS011;48241;48.824;10.102;2023-02-18T11:38:24;1.30;;;1.13;;
62258;SDS011;48241;48.824;10.102;2023-02-18T11:40:59;1.50;;;1.00;;
62258;SDS011;48241;48.824;10.102;2023-02-18T11:43:32;1.17;;;1.00;;
62258;SDS011;48241;48.824;10.102;2023-02-18T11:48:51;1.50;;;0.80;;
62258;SDS011;48241;48.824;10.102;2023-02-18T11:51:29;1.02;;;0.98;;
62258;SDS011;48241;48.824;10.102;2023-02-18T11:54:05;2.03;;;0.90;;
62258;SDS011;48241;48.824;10.102;2023-02-18T11:57:01;1.80;;;0.85;;
62258;SDS011;48241;48.824;10.102;2023-02-18T11:59:34;0.70;;;0.70;;
62258;SDS011;48241;48.824;10.102;2023-02-18T12:04:44;1.40;;;0.90;;
62258;SDS011;48241;48.824;10.102;2023-02-18T12:07:16;0.80;;;0.68;;
62258;SDS011;48241;48.824;10.102;2023-02-18T12:09:48;0.80;;;0.80;;
62258;SDS011;48241;48.824;10.102;2023-02-18T12:12:19;1.10;;;0.95;;
62258;SDS011;48241;48.824;10.102;2023-02-18T12:15:23;1.60;;;0.93;;
62258;SDS011;48241;48.824;10.102;2023-02-18T12:18:16;1.17;;;0.90;;
62258;SDS011;48241;48.824;10.102;2023-02-18T12:26:35;1.42;;;1.17;;
62258;SDS011;48241;48.824;10.102;2023-02-18T12:29:08;1.55;;;1.05;;
62258;SDS011;48241;48.824;10.102;2023-02-18T12:32:03;1.48;;;1.10;;
62258;SDS011;48241;48.824;10.102;2023-02-18T12:39:48;1.90;;;1.10;;
62258;SDS011;48241;48.824;10.102;2023-02-18T12:42:22;1.17;;;0.88;;
62258;SDS011;48241;48.824;10.102;2023-02-18T12:45:02;0.82;;;0.65;;
62258;SDS011;48241;48.824;10.102;2023-02-18T12:50:42;1.00;;;0.70;;
62258;SDS011;48241;48.824;10.102;2023-02-18T12:53:20;2.22;;;1.00;;
62258;SDS011;48241;48.824;10.102;2023-02-18T13:06:52;0.80;;;0.80;;
62258;SDS011;48241;48.824;10.102;2023-02-18T13:09:32;1.25;;;1.00;;
62258;SDS011;48241;48.824;10.102;2023-02-18T13:12:16;1.13;;;1.00;;
62258;SDS011;48241;48.824;10.102;2023-02-18T13:14:52;0.82;;;0.70;;
62258;SDS011;48241;48.824;10.102;2023-02-18T13:17:23;1.42;;;0.85;;
62258;SDS011;48241;48.824;10.102;2023-02-18T13:19:54;1.55;;;0.93;;
62258;SDS011;48241;48.824;10.102;2023-02-18T13:22:25;1.85;;;1.30;;
62258;SDS011;48241;48.824;10.102;2023-02-18T13:24:53;2.17;;;1.02;;
62258;SDS011;48241;48.824;10.102;2023-02-18T13:35:36;2.72;;;0.95;;
62258;SDS011;48241;48.824;10.102;2023-02-18T13:38:14;2.13;;;1.10;;
62258;SDS011;48241;48.824;10.102;2023-02-18T13:40:59;1.10;;;1.00;;
62258;SDS011;48241;48.824;10.102;2023-02-18T13:51:17;1.95;;;1.00;;
62258;SDS011;48241;48.824;10.102;2023-02-18T13:53:58;1.05;;;0.90;;
62258;SDS011;48241;48.824;10.102;2023-02-18T13:56:28;1.92;;;1.27;;
62258;SDS011;48241;48.824;10.102;2023-02-18T13:59:05;3.33;;;1.73;;
62258;SDS011;48241;48.824;10.102;2023-02-18T14:01:39;2.35;;;1.10;;
62258;SDS011;48241;48.824;10.102;2023-02-18T14:09:51;1.95;;;1.23;;
62258;SDS011;48241;48.824;10.102;2023-02-18T14:12:25;1.45;;;1.20;;
62258;SDS011;48241;48.824;10.102;2023-02-18T14:14:54;3.78;;;1.40;;
62258;SDS011;48241;48.824;10.102;2023-02-18T14:25:03;2.85;;;1.77;;
62258;SDS011;48241;48.824;10.102;2023-02-18T14:27:38;1.23;;;1.00;;
62258;SDS011;48241;48.824;10.102;2023-02-18T14:32:42;2.05;;;1.50;;
62258;SDS011;48241;48.824;10.102;2023-02-18T14:35:52;1.85;;;1.42;;
62258;SDS011;48241;48.824;10.102;2023-02-18T14:38:18;1.98;;;1.45;;
62258;SDS011;48241;48.824;10.102;2023-02-18T14:40:50;2.55;;;1.50;;
62258;SDS011;48241;48.824;10.102;2023-02-18T14:43:25;2.08;;;1.40;;
62258;SDS011;48241;48.824;10.102;2023-02-18T14:46:11;2.60;;;1.50;;
62258;SDS011;48241;48.824;10.102;2023-02-18T14:48:58;1.95;;;1.48;;
62258;SDS011;48241;48.824;10.102;2023-02-18T14:51:27;1.98;;;1.52;;
62258;SDS011;48241;48.824;10.102;2023-02-18T14:53:55;1.77;;;1.48;;
62258;SDS011;48241;48.824;10.102;2023-02-18T14:56:21;1.88;;;1.55;;
62258;SDS011;48241;48.824;10.102;2023-02-18T14:58:48;1.65;;;1.30;;
62258;SDS011;48241;48.824;10.102;2023-02-18T15:01:19;1.90;;;1.50;;
62258;SDS011;48241;48.824;10.102;2023-02-18T15:03:47;1.75;;;1.25;;
62258;SDS011;48241;48.824;10.102;2023-02-18T15:08:54;1.95;;;1.20;;
62258;SDS011;48241;48.824;10.102;2023-02-18T15:11:24;1.60;;;1.48;;
62258;SDS011;48241;48.824;10.102;2023-02-18T15:14:09;1.67;;;1.40;;
62258;SDS011;48241;48.824;10.102;2023-02-18T15:16:47;2.63;;;1.40;;
62258;SDS011;48241;48.824;10.102;2023-02-18T15:19:21;2.70;;;1.40;;
62258;SDS011;48241;48.824;10.102;2023-02-18T15:21:50;1.60;;;0.90;;
62258;SDS011;48241;48.824;10.102;2023-02-18T15:24:34;3.40;;;1.48;;
62258;SDS011;48241;48.824;10.102;2023-02-18T15:27:02;3.03;;;1.35;;
62258;SDS011;48241;48.824;10.102;2023-02-18T15:29:53;1.63;;;1.30;;
62258;SDS011;48241;48.824;10.102;2023-02-18T15:32:27;1.73;;;1.30;;
62258;SDS011;48241;48.824;10.102;2023-02-18T15:34:57;1.95;;;1.23;;
62258;SDS011;48241;48.824;10.102;2023-02-18T15:37:26;1.52;;;1.23;;
62258;SDS011;48241;48.824;10.102;2023-02-18T15:39:52;1.77;;;1.50;;
62258;SDS011;48241;48.824;10.102;2023-02-18T15:47:45;2.13;;;1.42;;
62258;SDS011;48241;48.824;10.102;2023-02-18T15:52:47;1.83;;;1.60;;
62258;SDS011;48241;48.824;10.102;2023-02-18T15:55:20;2.28;;;1.60;;
62258;SDS011;48241;48.824;10.102;2023-02-18T15:58:03;2.22;;;1.90;;
62258;SDS011;48241;48.824;10.102;2023-02-18T16:05:45;2.35;;;1.27;;
62258;SDS011;48241;48.824;10.102;2023-02-18T16:08:12;2.03;;;1.50;;
62258;SDS011;48241;48.824;10.102;2023-02-18T16:13:20;1.40;;;1.27;;
62258;SDS011;48241;48.824;10.102;2023-02-18T16:15:47;1.52;;;1.30;;
62258;SDS011;48241;48.824;10.102;2023-02-18T16:20:52;2.35;;;1.52;;
62258;SDS011;48241;48.824;10.102;2023-02-18T16:23:24;2.10;;;1.60;;
62258;SDS011;48241;48.824;10.102;2023-02-18T16:25:53;2.80;;;1.40;;
62258;SDS011;48241;48.824;10.102;2023-02-18T16:28:23;3.03;;;1.80;;
62258;SDS011;48241;48.824;10.102;2023-02-18T16:30:53;1.90;;;1.42;;
62258;SDS011;48241;48.824;10.102;2023-02-18T16:33:19;3.08;;;1.33;;
62258;SDS011;48241;48.824;10.102;2023-02-18T16:35:45;1.65;;;1.45;;
62258;SDS011;48241;48.824;10.102;2023-02-18T16:38:14;1.90;;;1.30;;
62258;SDS011;48241;48.824;10.102;2023-02-18T16:40:43;2.72;;;1.67;;
62258;SDS011;48241;48.824;10.102;2023-02-18T16:43:18;3.25;;;2.33;;
62258;SDS011;48241;48.824;10.102;2023-02-18T16:45:47;2.40;;;1.83;;
62258;SDS011;48241;48.824;10.102;2023-02-18T16:48:35;3.53;;;1.58;;
62258;SDS011;48241;48.824;10.102;2023-02-18T16:51:05;2.55;;;2.03;;
62258;SDS011;48241;48.824;10.102;2023-02-18T16:53:51;3.72;;;2.35;;
62258;SDS011;48241;48.824;10.102;2023-02-18T16:56:18;2.83;;;1.23;;
62258;SDS011;48241;48.824;10.102;2023-02-18T16:58:47;1.88;;;1.60;;
62258;SDS011;48241;48.824;10.102;2023-02-18T17:01:24;1.67;;;1.50;;
62258;SDS011;48241;48.824;10.102;2023-02-18T17:03:56;2.10;;;1.40;;
62258;SDS011;48241;48.824;10.102;2023-02-18T17:06:22;2.10;;;1.75;;
62258;SDS011;48241;48.824;10.102;2023-02-18T17:08:48;2.10;;;1.60;;
62258;SDS011;48241;48.824;10.102;2023-02-18T17:11:19;1.98;;;1.60;;
62258;SDS011;48241;48.824;10.102;2023-02-18T17:13:47;4.03;;;1.70;;
62258;SDS011;48241;48.824;10.102;2023-02-18T17:16:13;2.85;;;1.80;;
62258;SDS011;48241;48.824;10.102;2023-02-18T17:18:39;2.10;;;1.60;;
62258;SDS011;48241;48.824;10.102;2023-02-18T17:21:08;1.50;;;1.35;;